TimePST,TemperatureF,Dew PointF,Humidity,Sea Level PressureIn,VisibilityMPH,Wind Direction,Wind SpeedMPH,Gust SpeedMPH,PrecipitationIn,Events,Conditions,WindDirDegrees,DateUTC
12:55 AM,30.9,28.0,89,29.93,6.0,East,4.6,-,N/A,,Overcast,80,2013-02-06 08:55:00
1:55 AM,32.0,28.9,88,29.95,6.0,Calm,Calm,-,N/A,,Mostly Cloudy,0,2013-02-06 09:55:00
2:55 AM,32.0,28.9,88,29.95,6.0,ENE,3.5,-,N/A,,Partly Cloudy,70,2013-02-06 10:55:00
3:55 AM,28.9,27.0,92,29.96,5.0,East,4.6,-,N/A,,Clear,80,2013-02-06 11:55:00
4:55 AM,32.0,28.9,88,29.98,8.0,NE,3.5,-,N/A,,Clear,40,2013-02-06 12:55:00
5:55 AM,32.0,28.0,85,29.99,9.0,Calm,Calm,-,N/A,,Clear,0,2013-02-06 13:55:00
6:55 AM,30.9,28.0,89,30.00,10.0,South,3.5,-,N/A,,Clear,170,2013-02-06 14:55:00
7:55 AM,33.1,28.9,85,30.01,9.0,NE,3.5,-,N/A,,Clear,50,2013-02-06 15:55:00
8:55 AM,33.1,30.0,89,30.03,9.0,Calm,Calm,-,N/A,,Partly Cloudy,0,2013-02-06 16:55:00
9:55 AM,37.0,30.0,76,30.04,10.0,East,3.5,-,N/A,,Partly Cloudy,100,2013-02-06 17:55:00
10:55 AM,37.9,30.9,76,30.04,10.0,East,6.9,-,N/A,,Partly Cloudy,100,2013-02-06 18:55:00
11:55 AM,41.0,33.1,73,30.03,10.0,Calm,Calm,-,N/A,,Scattered Clouds,0,2013-02-06 19:55:00
12:55 PM,41.0,32.0,70,30.03,10.0,Calm,Calm,-,N/A,,Mostly Cloudy,0,2013-02-06 20:55:00
1:55 PM,43.0,33.1,68,30.02,10.0,Calm,Calm,-,N/A,,Mostly Cloudy,0,2013-02-06 21:55:00
2:55 PM,42.1,33.1,70,30.01,10.0,SW,4.6,-,N/A,,Overcast,220,2013-02-06 22:55:00
3:55 PM,42.1,33.1,70,30.00,10.0,Calm,Calm,-,N/A,,Mostly Cloudy,0,2013-02-06 23:55:00
4:55 PM,41.0,32.0,70,30.00,10.0,Calm,Calm,-,N/A,,Overcast,0,2013-02-07 00:55:00
5:55 PM,39.0,32.0,76,29.99,10.0,Calm,Calm,-,N/A,,Overcast,0,2013-02-07 01:55:00
6:55 PM,37.9,32.0,79,29.98,10.0,North,4.6,-,N/A,,Overcast,350,2013-02-07 02:55:00
7:55 PM,37.0,32.0,82,29.97,10.0,Variable,3.5,-,N/A,,Overcast,0,2013-02-07 03:55:00
8:55 PM,35.1,30.9,85,29.97,10.0,Calm,Calm,-,N/A,,Mostly Cloudy,0,2013-02-07 04:55:00
9:55 PM,35.1,30.9,85,29.96,10.0,Calm,Calm,-,N/A,,Partly Cloudy,0,2013-02-07 05:55:00
10:55 PM,35.1,30.9,85,29.96,10.0,Calm,Calm,-,N/A,,Overcast,0,2013-02-07 06:55:00
11:55 PM,35.1,30.9,85,29.94,10.0,Calm,Calm,-,N/A,,Clear,0,2013-02-07 07:55:00